sensor_id;sensor_type;location;lat;lon;timestamp;P1;durP1;ratioP1;P2;durP2;ratioP2
3843;SDS011;1937;51.444;6.484;2024-03-25T00:01:37;11.60;;;4.70;;
3843;SDS011;1937;51.444;6.484;2024-03-25T00:04:03;12.73;;;4.20;;
3843;SDS011;1937;51.444;6.484;2024-03-25T00:06:30;12.87;;;5.17;;
3843;SDS011;1937;51.444;6.484;2024-03-25T00:08:58;18.73;;;3.90;;
3843;SDS011;1937;51.444;6.484;2024-03-25T00:11:26;10.17;;;4.77;;
3843;SDS011;1937;51.444;6.484;2024-03-25T00:13:52;26.53;;;5.10;;
3843;SDS011;1937;51.444;6.484;2024-03-25T00:16:19;26.87;;;5.93;;
3843;SDS011;1937;51.444;6.484;2024-03-25T00:18:44;10.37;;;4.90;;
3843;SDS011;1937;51.444;6.484;2024-03-25T00:21:11;14.60;;;3.80;;
3843;SDS011;1937;51.444;6.484;2024-03-25T00:23:37;18.53;;;4.07;;
3843;SDS011;1937;51.444;6.484;2024-03-25T00:26:03;12.50;;;4.23;;
3843;SDS011;1937;51.444;6.484;2024-03-25T00:28:30;21.83;;;6.23;;
3843;SDS011;1937;51.444;6.484;2024-03-25T00:30:57;12.80;;;4.90;;
3843;SDS011;1937;51.444;6.484;2024-03-25T00:33:23;10.73;;;4.50;;
3843;SDS011;1937;51.444;6.484;2024-03-25T00:35:49;18.73;;;5.37;;
3843;SDS011;1937;51.444;6.484;2024-03-25T00:38:15;10.60;;;4.40;;
3843;SDS011;1937;51.444;6.484;2024-03-25T00:40:42;19.43;;;7.87;;
3843;SDS011;1937;51.444;6.484;2024-03-25T00:43:07;10.63;;;4.70;;
3843;SDS011;1937;51.444;6.484;2024-03-25T00:45:35;16.83;;;5.27;;
3843;SDS011;1937;51.444;6.484;2024-03-25T00:48:02;8.77;;;4.27;;
3843;SDS011;1937;51.444;6.484;2024-03-25T00:50:29;14.40;;;4.93;;
3843;SDS011;1937;51.444;6.484;2024-03-25T00:52:54;11.40;;;6.03;;
3843;SDS011;1937;51.444;6.484;2024-03-25T00:55:21;20.20;;;4.03;;
3843;SDS011;1937;51.444;6.484;2024-03-25T00:57:47;22.67;;;4.93;;
3843;SDS011;1937;51.444;6.484;2024-03-25T01:00:15;18.93;;;4.63;;
3843;SDS011;1937;51.444;6.484;2024-03-25T01:02:42;16.23;;;5.50;;
3843;SDS011;1937;51.444;6.484;2024-03-25T01:05:08;7.00;;;4.50;;
3843;SDS011;1937;51.444;6.484;2024-03-25T01:07:34;17.13;;;5.53;;
3843;SDS011;1937;51.444;6.484;2024-03-25T01:10:01;14.20;;;5.13;;
3843;SDS011;1937;51.444;6.484;2024-03-25T01:12:27;24.90;;;5.50;;
3843;SDS011;1937;51.444;6.484;2024-03-25T01:14:53;20.40;;;5.37;;
3843;SDS011;1937;51.444;6.484;2024-03-25T01:17:19;15.47;;;4.73;;
3843;SDS011;1937;51.444;6.484;2024-03-25T01:19:47;26.20;;;5.47;;
3843;SDS011;1937;51.444;6.484;2024-03-25T01:22:13;19.17;;;5.83;;
3843;SDS011;1937;51.444;6.484;2024-03-25T01:24:39;18.23;;;5.43;;
3843;SDS011;1937;51.444;6.484;2024-03-25T01:27:05;8.47;;;5.20;;
3843;SDS011;1937;51.444;6.484;2024-03-25T01:29:32;23.73;;;6.00;;
3843;SDS011;1937;51.444;6.484;2024-03-25T01:31:57;14.93;;;4.50;;
3843;SDS011;1937;51.444;6.484;2024-03-25T01:34:24;17.53;;;4.50;;
3843;SDS011;1937;51.444;6.484;2024-03-25T01:36:52;18.13;;;5.27;;
3843;SDS011;1937;51.444;6.484;2024-03-25T01:39:18;15.97;;;4.97;;
3843;SDS011;1937;51.444;6.484;2024-03-25T01:41:44;17.03;;;5.67;;
3843;SDS011;1937;51.444;6.484;2024-03-25T01:44:11;11.37;;;4.80;;
3843;SDS011;1937;51.444;6.484;2024-03-25T01:46:36;28.67;;;6.50;;
3843;SDS011;1937;51.444;6.484;2024-03-25T01:49:03;13.37;;;4.10;;
3843;SDS011;1937;51.444;6.484;2024-03-25T01:51:30;16.80;;;4.70;;
3843;SDS011;1937;51.444;6.484;2024-03-25T01:53:58;26.97;;;5.77;;
3843;SDS011;1937;51.444;6.484;2024-03-25T01:56:25;15.73;;;5.23;;
3843;SDS011;1937;51.444;6.484;2024-03-25T01:58:52;12.60;;;5.13;;
3843;SDS011;1937;51.444;6.484;2024-03-25T02:01:18;16.93;;;7.03;;
3843;SDS011;1937;51.444;6.484;2024-03-25T02:03:46;18.90;;;5.30;;
3843;SDS011;1937;51.444;6.484;2024-03-25T02:06:12;25.40;;;4.23;;
3843;SDS011;1937;51.444;6.484;2024-03-25T02:08:41;27.60;;;5.83;;
3843;SDS011;1937;51.444;6.484;2024-03-25T02:11:08;12.70;;;5.17;;
3843;SDS011;1937;51.444;6.484;2024-03-25T02:13:36;25.67;;;5.90;;
3843;SDS011;1937;51.444;6.484;2024-03-25T02:16:02;17.33;;;5.20;;
3843;SDS011;1937;51.444;6.484;2024-03-25T02:18:29;14.70;;;4.73;;
3843;SDS011;1937;51.444;6.484;2024-03-25T02:20:56;26.03;;;5.50;;
3843;SDS011;1937;51.444;6.484;2024-03-25T02:23:23;19.37;;;5.00;;
3843;SDS011;1937;51.444;6.484;2024-03-25T02:25:50;14.90;;;4.60;;
3843;SDS011;1937;51.444;6.484;2024-03-25T02:28:17;14.43;;;5.43;;
3843;SDS011;1937;51.444;6.484;2024-03-25T02:30:43;16.33;;;4.90;;
3843;SDS011;1937;51.444;6.484;2024-03-25T02:33:10;12.37;;;5.10;;
3843;SDS011;1937;51.444;6.484;2024-03-25T02:35:35;17.93;;;5.27;;
3843;SDS011;1937;51.444;6.484;2024-03-25T02:38:04;13.10;;;4.30;;
3843;SDS011;1937;51.444;6.484;2024-03-25T02:40:29;24.23;;;4.80;;
3843;SDS011;1937;51.444;6.484;2024-03-25T02:42:58;20.20;;;5.70;;
3843;SDS011;1937;51.444;6.484;2024-03-25T02:45:24;13.40;;;5.90;;
3843;SDS011;1937;51.444;6.484;2024-03-25T02:47:51;16.80;;;5.50;;
3843;SDS011;1937;51.444;6.484;2024-03-25T02:50:17;18.53;;;5.03;;
3843;SDS011;1937;51.444;6.484;2024-03-25T02:52:43;19.00;;;5.00;;
3843;SDS011;1937;51.444;6.484;2024-03-25T02:55:09;22.20;;;5.67;;
3843;SDS011;1937;51.444;6.484;2024-03-25T02:57:35;30.03;;;6.03;;
3843;SDS011;1937;51.444;6.484;2024-03-25T03:00:03;20.70;;;6.00;;
3843;SDS011;1937;51.444;6.484;2024-03-25T03:02:34;26.17;;;7.37;;
3843;SDS011;1937;51.444;6.484;2024-03-25T03:04:59;19.63;;;6.40;;
3843;SDS011;1937;51.444;6.484;2024-03-25T03:07:27;19.93;;;5.70;;
3843;SDS011;1937;51.444;6.484;2024-03-25T03:09:53;17.37;;;6.17;;
3843;SDS011;1937;51.444;6.484;2024-03-25T03:12:19;20.63;;;5.93;;
3843;SDS011;1937;51.444;6.484;2024-03-25T03:14:45;26.97;;;7.50;;
3843;SDS011;1937;51.444;6.484;2024-03-25T03:17:13;19.50;;;6.53;;
3843;SDS011;1937;51.444;6.484;2024-03-25T03:19:39;19.97;;;5.90;;
3843;SDS011;1937;51.444;6.484;2024-03-25T03:22:05;11.83;;;5.00;;
3843;SDS011;1937;51.444;6.484;2024-03-25T03:24:31;21.93;;;6.40;;
3843;SDS011;1937;51.444;6.484;2024-03-25T03:26:58;19.17;;;6.07;;
3843;SDS011;1937;51.444;6.484;2024-03-25T03:29:23;18.43;;;6.60;;
3843;SDS011;1937;51.444;6.484;2024-03-25T03:31:50;19.60;;;6.40;;
3843;SDS011;1937;51.444;6.484;2024-03-25T03:34:17;17.57;;;6.27;;
3843;SDS011;1937;51.444;6.484;2024-03-25T03:36:43;14.80;;;5.73;;
3843;SDS011;1937;51.444;6.484;2024-03-25T03:39:09;23.50;;;5.93;;
3843;SDS011;1937;51.444;6.484;2024-03-25T03:41:36;18.40;;;7.20;;
3843;SDS011;1937;51.444;6.484;2024-03-25T03:44:01;18.83;;;6.80;;
3843;SDS011;1937;51.444;6.484;2024-03-25T03:46:28;21.83;;;6.37;;
3843;SDS011;1937;51.444;6.484;2024-03-25T03:48:54;16.50;;;5.87;;
3843;SDS011;1937;51.444;6.484;2024-03-25T03:51:22;20.23;;;6.47;;
3843;SDS011;1937;51.444;6.484;2024-03-25T03:53:47;12.53;;;5.73;;
3843;SDS011;1937;51.444;6.484;2024-03-25T03:56:14;13.97;;;7.20;;
3843;SDS011;1937;51.444;6.484;2024-03-25T03:58:40;17.03;;;6.27;;
3843;SDS011;1937;51.444;6.484;2024-03-25T04:01:13;17.50;;;6.10;;
3843;SDS011;1937;51.444;6.484;2024-03-25T04:03:39;17.30;;;5.67;;
3843;SDS011;1937;51.444;6.484;2024-03-25T04:06:07;13.47;;;5.17;;
3843;SDS011;1937;51.444;6.484;2024-03-25T04:08:35;21.83;;;7.13;;
3843;SDS011;1937;51.444;6.484;2024-03-25T04:11:02;22.40;;;5.53;;
3843;SDS011;1937;51.444;6.484;2024-03-25T04:13:27;25.10;;;5.97;;
3843;SDS011;1937;51.444;6.484;2024-03-25T04:15:54;22.60;;;6.00;;
3843;SDS011;1937;51.444;6.484;2024-03-25T04:18:20;17.83;;;5.70;;
3843;SDS011;1937;51.444;6.484;2024-03-25T04:20:46;26.17;;;6.50;;
3843;SDS011;1937;51.444;6.484;2024-03-25T04:23:12;14.57;;;5.70;;
3843;SDS011;1937;51.444;6.484;2024-03-25T04:25:40;14.67;;;5.70;;
3843;SDS011;1937;51.444;6.484;2024-03-25T04:28:05;13.10;;;5.07;;
3843;SDS011;1937;51.444;6.484;2024-03-25T04:30:32;11.53;;;5.60;;
3843;SDS011;1937;51.444;6.484;2024-03-25T04:32:58;13.40;;;6.40;;
3843;SDS011;1937;51.444;6.484;2024-03-25T04:35:25;20.53;;;6.17;;
3843;SDS011;1937;51.444;6.484;2024-03-25T04:37:50;15.97;;;6.50;;
3843;SDS011;1937;51.444;6.484;2024-03-25T04:40:16;15.17;;;6.20;;
3843;SDS011;1937;51.444;6.484;2024-03-25T04:42:44;16.07;;;6.40;;
3843;SDS011;1937;51.444;6.484;2024-03-25T04:45:09;22.50;;;7.40;;
3843;SDS011;1937;51.444;6.484;2024-03-25T04:47:35;17.10;;;5.90;;
3843;SDS011;1937;51.444;6.484;2024-03-25T04:50:01;13.60;;;6.83;;
3843;SDS011;1937;51.444;6.484;2024-03-25T04:52:26;21.23;;;7.60;;
3843;SDS011;1937;51.444;6.484;2024-03-25T04:54:52;23.17;;;6.00;;
3843;SDS011;1937;51.444;6.484;2024-03-25T04:57:18;20.87;;;7.90;;
3843;SDS011;1937;51.444;6.484;2024-03-25T04:59:45;13.37;;;5.90;;
3843;SDS011;1937;51.444;6.484;2024-03-25T05:02:10;20.37;;;6.67;;
3843;SDS011;1937;51.444;6.484;2024-03-25T05:04:36;18.07;;;6.80;;
3843;SDS011;1937;51.444;6.484;2024-03-25T05:07:02;16.70;;;7.20;;
3843;SDS011;1937;51.444;6.484;2024-03-25T05:09:28;16.60;;;6.90;;
3843;SDS011;1937;51.444;6.484;2024-03-25T05:11:53;12.90;;;7.60;;
3843;SDS011;1937;51.444;6.484;2024-03-25T05:14:19;11.90;;;5.93;;
3843;SDS011;1937;51.444;6.484;2024-03-25T05:16:46;23.30;;;7.10;;
3843;SDS011;1937;51.444;6.484;2024-03-25T05:19:12;20.03;;;7.00;;
3843;SDS011;1937;51.444;6.484;2024-03-25T05:21:37;24.00;;;8.57;;
3843;SDS011;1937;51.444;6.484;2024-03-25T05:24:03;18.83;;;7.77;;
3843;SDS011;1937;51.444;6.484;2024-03-25T05:26:29;25.80;;;7.30;;
3843;SDS011;1937;51.444;6.484;2024-03-25T05:28:55;15.10;;;7.67;;
3843;SDS011;1937;51.444;6.484;2024-03-25T05:31:21;27.47;;;8.53;;
3843;SDS011;1937;51.444;6.484;2024-03-25T05:33:49;25.57;;;7.50;;
3843;SDS011;1937;51.444;6.484;2024-03-25T05:36:15;23.67;;;8.20;;
3843;SDS011;1937;51.444;6.484;2024-03-25T05:38:41;22.83;;;7.43;;
3843;SDS011;1937;51.444;6.484;2024-03-25T05:41:07;23.67;;;7.83;;
3843;SDS011;1937;51.444;6.484;2024-03-25T05:43:33;26.17;;;8.93;;
3843;SDS011;1937;51.444;6.484;2024-03-25T05:45:58;15.27;;;7.47;;
3843;SDS011;1937;51.444;6.484;2024-03-25T05:48:24;25.13;;;7.33;;
3843;SDS011;1937;51.444;6.484;2024-03-25T05:50:58;11.90;;;6.67;;
3843;SDS011;1937;51.444;6.484;2024-03-25T05:53:25;17.13;;;6.77;;
3843;SDS011;1937;51.444;6.484;2024-03-25T05:55:51;18.40;;;8.80;;
3843;SDS011;1937;51.444;6.484;2024-03-25T05:58:17;18.70;;;7.50;;
3843;SDS011;1937;51.444;6.484;2024-03-25T06:00:42;16.93;;;8.70;;
3843;SDS011;1937;51.444;6.484;2024-03-25T06:03:08;20.50;;;7.27;;
3843;SDS011;1937;51.444;6.484;2024-03-25T06:05:33;21.10;;;8.83;;
3843;SDS011;1937;51.444;6.484;2024-03-25T06:08:00;24.20;;;8.30;;
3843;SDS011;1937;51.444;6.484;2024-03-25T06:10:26;20.60;;;7.67;;
3843;SDS011;1937;51.444;6.484;2024-03-25T06:12:52;15.23;;;7.70;;
3843;SDS011;1937;51.444;6.484;2024-03-25T06:15:18;28.97;;;8.70;;
3843;SDS011;1937;51.444;6.484;2024-03-25T06:17:43;11.53;;;6.90;;
3843;SDS011;1937;51.444;6.484;2024-03-25T06:20:09;24.70;;;8.00;;
3843;SDS011;1937;51.444;6.484;2024-03-25T06:22:36;16.43;;;7.83;;
3843;SDS011;1937;51.444;6.484;2024-03-25T06:25:03;19.07;;;8.93;;
3843;SDS011;1937;51.444;6.484;2024-03-25T06:27:29;23.73;;;9.30;;
3843;SDS011;1937;51.444;6.484;2024-03-25T06:29:55;14.67;;;8.50;;
3843;SDS011;1937;51.444;6.484;2024-03-25T06:32:21;36.67;;;9.17;;
3843;SDS011;1937;51.444;6.484;2024-03-25T06:35:04;18.47;;;7.93;;
3843;SDS011;1937;51.444;6.484;2024-03-25T06:37:30;25.10;;;8.53;;
3843;SDS011;1937;51.444;6.484;2024-03-25T06:39:56;18.13;;;7.90;;
3843;SDS011;1937;51.444;6.484;2024-03-25T06:42:23;17.97;;;7.47;;
3843;SDS011;1937;51.444;6.484;2024-03-25T06:44:50;21.90;;;8.43;;
3843;SDS011;1937;51.444;6.484;2024-03-25T06:47:15;20.30;;;7.23;;
3843;SDS011;1937;51.444;6.484;2024-03-25T06:49:41;19.40;;;7.90;;
3843;SDS011;1937;51.444;6.484;2024-03-25T06:52:07;24.43;;;9.10;;
3843;SDS011;1937;51.444;6.484;2024-03-25T06:54:32;22.00;;;7.60;;
3843;SDS011;1937;51.444;6.484;2024-03-25T06:56:58;26.07;;;7.70;;
3843;SDS011;1937;51.444;6.484;2024-03-25T06:59:25;25.10;;;7.40;;
3843;SDS011;1937;51.444;6.484;2024-03-25T07:01:51;22.40;;;8.50;;
3843;SDS011;1937;51.444;6.484;2024-03-25T07:04:16;21.80;;;7.83;;
3843;SDS011;1937;51.444;6.484;2024-03-25T07:06:42;15.30;;;7.27;;
3843;SDS011;1937;51.444;6.484;2024-03-25T07:09:07;17.30;;;7.20;;
3843;SDS011;1937;51.444;6.484;2024-03-25T07:11:33;21.80;;;6.83;;
3843;SDS011;1937;51.444;6.484;2024-03-25T07:13:59;25.53;;;7.57;;
3843;SDS011;1937;51.444;6.484;2024-03-25T07:16:26;12.07;;;6.90;;
3843;SDS011;1937;51.444;6.484;2024-03-25T07:18:51;24.73;;;8.07;;
3843;SDS011;1937;51.444;6.484;2024-03-25T07:21:17;15.47;;;7.83;;
3843;SDS011;1937;51.444;6.484;2024-03-25T07:23:43;15.13;;;7.40;;
3843;SDS011;1937;51.444;6.484;2024-03-25T07:26:08;16.63;;;7.03;;
3843;SDS011;1937;51.444;6.484;2024-03-25T07:28:34;14.57;;;7.30;;
3843;SDS011;1937;51.444;6.484;2024-03-25T07:30:59;15.83;;;7.43;;
3843;SDS011;1937;51.444;6.484;2024-03-25T07:33:26;28.90;;;7.50;;
3843;SDS011;1937;51.444;6.484;2024-03-25T07:35:52;24.40;;;8.03;;
3843;SDS011;1937;51.444;6.484;2024-03-25T07:38:18;25.30;;;8.20;;
3843;SDS011;1937;51.444;6.484;2024-03-25T07:40:43;13.10;;;7.27;;
3843;SDS011;1937;51.444;6.484;2024-03-25T07:43:09;17.50;;;8.10;;
3843;SDS011;1937;51.444;6.484;2024-03-25T07:45:35;16.57;;;7.97;;
3843;SDS011;1937;51.444;6.484;2024-03-25T07:48:00;18.40;;;7.50;;
3843;SDS011;1937;51.444;6.484;2024-03-25T07:50:27;25.30;;;8.53;;
3843;SDS011;1937;51.444;6.484;2024-03-25T07:52:53;18.00;;;7.03;;
3843;SDS011;1937;51.444;6.484;2024-03-25T07:55:18;18.77;;;7.50;;
3843;SDS011;1937;51.444;6.484;2024-03-25T07:57:44;12.43;;;6.50;;
3843;SDS011;1937;51.444;6.484;2024-03-25T08:00:10;21.13;;;8.80;;
3843;SDS011;1937;51.444;6.484;2024-03-25T08:02:36;21.43;;;7.83;;
3843;SDS011;1937;51.444;6.484;2024-03-25T08:05:02;12.70;;;6.37;;
3843;SDS011;1937;51.444;6.484;2024-03-25T08:07:30;23.70;;;7.80;;
3843;SDS011;1937;51.444;6.484;2024-03-25T08:09:55;17.63;;;5.53;;
3843;SDS011;1937;51.444;6.484;2024-03-25T08:12:21;14.63;;;6.77;;
3843;SDS011;1937;51.444;6.484;2024-03-25T08:14:47;14.13;;;5.70;;
3843;SDS011;1937;51.444;6.484;2024-03-25T08:17:12;16.60;;;6.07;;
3843;SDS011;1937;51.444;6.484;2024-03-25T08:19:38;20.90;;;5.93;;
3843;SDS011;1937;51.444;6.484;2024-03-25T08:22:04;15.43;;;6.90;;
3843;SDS011;1937;51.444;6.484;2024-03-25T08:24:31;11.33;;;5.50;;
3843;SDS011;1937;51.444;6.484;2024-03-25T08:26:56;13.83;;;5.10;;
3843;SDS011;1937;51.444;6.484;2024-03-25T08:29:22;15.33;;;5.43;;
3843;SDS011;1937;51.444;6.484;2024-03-25T08:31:48;11.27;;;4.83;;
3843;SDS011;1937;51.444;6.484;2024-03-25T08:34:13;12.43;;;5.57;;
3843;SDS011;1937;51.444;6.484;2024-03-25T08:36:39;14.40;;;5.17;;
3843;SDS011;1937;51.444;6.484;2024-03-25T08:39:05;19.10;;;5.27;;
3843;SDS011;1937;51.444;6.484;2024-03-25T08:41:32;11.50;;;4.67;;
3843;SDS011;1937;51.444;6.484;2024-03-25T08:43:58;17.93;;;4.70;;
3843;SDS011;1937;51.444;6.484;2024-03-25T08:46:23;10.87;;;5.00;;
3843;SDS011;1937;51.444;6.484;2024-03-25T08:48:49;16.83;;;6.00;;
3843;SDS011;1937;51.444;6.484;2024-03-25T08:51:15;9.77;;;4.57;;
3843;SDS011;1937;51.444;6.484;2024-03-25T08:53:40;13.83;;;5.27;;
3843;SDS011;1937;51.444;6.484;2024-03-25T08:56:06;9.83;;;4.53;;
3843;SDS011;1937;51.444;6.484;2024-03-25T08:58:33;10.87;;;4.17;;
3843;SDS011;1937;51.444;6.484;2024-03-25T09:00:59;14.20;;;4.20;;
3843;SDS011;1937;51.444;6.484;2024-03-25T09:03:24;9.30;;;5.57;;
3843;SDS011;1937;51.444;6.484;2024-03-25T09:05:50;10.90;;;4.40;;
3843;SDS011;1937;51.444;6.484;2024-03-25T09:08:15;12.13;;;4.40;;
3843;SDS011;1937;51.444;6.484;2024-03-25T09:10:43;15.93;;;4.80;;
3843;SDS011;1937;51.444;6.484;2024-03-25T09:13:26;12.07;;;4.20;;
3843;SDS011;1937;51.444;6.484;2024-03-25T09:15:53;18.13;;;4.97;;
3843;SDS011;1937;51.444;6.484;2024-03-25T09:18:19;14.77;;;4.30;;
3843;SDS011;1937;51.444;6.484;2024-03-25T09:20:45;7.67;;;3.67;;
3843;SDS011;1937;51.444;6.484;2024-03-25T09:23:10;10.47;;;4.33;;
3843;SDS011;1937;51.444;6.484;2024-03-25T09:25:36;14.43;;;4.47;;
3843;SDS011;1937;51.444;6.484;2024-03-25T09:28:02;18.27;;;4.97;;
3843;SDS011;1937;51.444;6.484;2024-03-25T09:30:28;7.70;;;4.00;;
3843;SDS011;1937;51.444;6.484;2024-03-25T09:32:55;13.10;;;3.80;;
3843;SDS011;1937;51.444;6.484;2024-03-25T09:35:20;11.90;;;3.80;;
3843;SDS011;1937;51.444;6.484;2024-03-25T09:37:46;14.70;;;4.43;;
3843;SDS011;1937;51.444;6.484;2024-03-25T09:40:12;17.07;;;4.40;;
3843;SDS011;1937;51.444;6.484;2024-03-25T09:42:41;13.40;;;3.63;;
3843;SDS011;1937;51.444;6.484;2024-03-25T09:45:09;24.27;;;5.73;;
3843;SDS011;1937;51.444;6.484;2024-03-25T09:47:36;7.97;;;4.17;;
3843;SDS011;1937;51.444;6.484;2024-03-25T09:50:07;23.47;;;4.33;;
3843;SDS011;1937;51.444;6.484;2024-03-25T09:52:35;10.37;;;4.00;;
3843;SDS011;1937;51.444;6.484;2024-03-25T09:55:01;6.37;;;3.57;;
3843;SDS011;1937;51.444;6.484;2024-03-25T09:57:27;11.50;;;4.23;;
3843;SDS011;1937;51.444;6.484;2024-03-25T09:59:53;19.87;;;4.90;;
3843;SDS011;1937;51.444;6.484;2024-03-25T10:02:19;9.17;;;4.17;;
3843;SDS011;1937;51.444;6.484;2024-03-25T10:04:46;12.93;;;4.57;;
3843;SDS011;1937;51.444;6.484;2024-03-25T10:07:20;20.20;;;5.50;;
3843;SDS011;1937;51.444;6.484;2024-03-25T10:09:47;9.43;;;4.47;;
3843;SDS011;1937;51.444;6.484;2024-03-25T10:12:12;10.83;;;4.90;;
3843;SDS011;1937;51.444;6.484;2024-03-25T10:14:39;12.30;;;4.90;;
3843;SDS011;1937;51.444;6.484;2024-03-25T10:17:05;12.47;;;5.20;;
3843;SDS011;1937;51.444;6.484;2024-03-25T10:19:30;11.37;;;5.63;;
3843;SDS011;1937;51.444;6.484;2024-03-25T10:22:01;9.60;;;4.33;;
3843;SDS011;1937;51.444;6.484;2024-03-25T10:24:30;9.43;;;5.73;;
3843;SDS011;1937;51.444;6.484;2024-03-25T10:27:02;13.53;;;5.43;;
3843;SDS011;1937;51.444;6.484;2024-03-25T10:29:28;16.40;;;4.87;;
3843;SDS011;1937;51.444;6.484;2024-03-25T10:31:58;11.90;;;5.33;;
3843;SDS011;1937;51.444;6.484;2024-03-25T10:34:24;10.50;;;5.00;;
3843;SDS011;1937;51.444;6.484;2024-03-25T10:36:49;8.07;;;4.60;;
3843;SDS011;1937;51.444;6.484;2024-03-25T10:39:16;13.43;;;4.77;;
3843;SDS011;1937;51.444;6.484;2024-03-25T10:41:46;14.03;;;5.00;;
3843;SDS011;1937;51.444;6.484;2024-03-25T10:44:13;8.20;;;3.90;;
3843;SDS011;1937;51.444;6.484;2024-03-25T10:46:39;10.80;;;4.70;;
3843;SDS011;1937;51.444;6.484;2024-03-25T10:49:07;6.53;;;4.00;;
3843;SDS011;1937;51.444;6.484;2024-03-25T10:51:41;6.90;;;3.53;;
3843;SDS011;1937;51.444;6.484;2024-03-25T10:54:09;10.23;;;4.07;;
3843;SDS011;1937;51.444;6.484;2024-03-25T10:56:37;8.63;;;5.20;;
3843;SDS011;1937;51.444;6.484;2024-03-25T10:59:05;11.40;;;3.93;;
3843;SDS011;1937;51.444;6.484;2024-03-25T11:01:32;7.40;;;3.80;;
3843;SDS011;1937;51.444;6.484;2024-03-25T11:03:58;9.97;;;3.70;;
3843;SDS011;1937;51.444;6.484;2024-03-25T11:06:25;7.30;;;4.03;;
3843;SDS011;1937;51.444;6.484;2024-03-25T11:08:55;12.10;;;4.30;;
3843;SDS011;1937;51.444;6.484;2024-03-25T11:11:21;9.83;;;4.53;;
3843;SDS011;1937;51.444;6.484;2024-03-25T11:13:47;11.83;;;4.70;;
3843;SDS011;1937;51.444;6.484;2024-03-25T11:16:14;8.40;;;3.90;;
3843;SDS011;1937;51.444;6.484;2024-03-25T11:18:53;7.50;;;4.27;;
3843;SDS011;1937;51.444;6.484;2024-03-25T11:21:24;7.90;;;4.00;;
3843;SDS011;1937;51.444;6.484;2024-03-25T11:23:50;8.57;;;3.97;;
3843;SDS011;1937;51.444;6.484;2024-03-25T11:26:16;8.10;;;3.63;;
3843;SDS011;1937;51.444;6.484;2024-03-25T11:28:43;11.77;;;4.53;;
3843;SDS011;1937;51.444;6.484;2024-03-25T11:31:09;9.03;;;3.77;;
3843;SDS011;1937;51.444;6.484;2024-03-25T11:33:37;9.57;;;4.40;;
3843;SDS011;1937;51.444;6.484;2024-03-25T11:36:04;11.23;;;3.90;;
3843;SDS011;1937;51.444;6.484;2024-03-25T11:38:33;8.73;;;3.80;;
3843;SDS011;1937;51.444;6.484;2024-03-25T11:40:59;7.33;;;3.37;;
3843;SDS011;1937;51.444;6.484;2024-03-25T11:43:25;4.97;;;3.27;;
3843;SDS011;1937;51.444;6.484;2024-03-25T11:45:51;7.23;;;4.13;;
3843;SDS011;1937;51.444;6.484;2024-03-25T11:48:17;4.70;;;3.53;;
3843;SDS011;1937;51.444;6.484;2024-03-25T11:50:46;6.47;;;4.30;;
3843;SDS011;1937;51.444;6.484;2024-03-25T11:53:12;11.83;;;4.83;;
3843;SDS011;1937;51.444;6.484;2024-03-25T11:55:38;8.77;;;5.10;;
3843;SDS011;1937;51.444;6.484;2024-03-25T11:58:05;13.00;;;5.70;;
3843;SDS011;1937;51.444;6.484;2024-03-25T12:00:31;10.97;;;4.90;;
3843;SDS011;1937;51.444;6.484;2024-03-25T12:02:57;8.70;;;5.50;;
3843;SDS011;1937;51.444;6.484;2024-03-25T12:05:22;8.60;;;4.63;;
3843;SDS011;1937;51.444;6.484;2024-03-25T12:07:49;8.83;;;4.90;;
3843;SDS011;1937;51.444;6.484;2024-03-25T12:10:15;12.00;;;5.30;;
3843;SDS011;1937;51.444;6.484;2024-03-25T12:12:59;6.43;;;3.90;;
3843;SDS011;1937;51.444;6.484;2024-03-25T12:15:25;8.20;;;4.70;;
3843;SDS011;1937;51.444;6.484;2024-03-25T12:17:50;5.87;;;3.70;;
3843;SDS011;1937;51.444;6.484;2024-03-25T12:20:17;7.20;;;3.40;;
3843;SDS011;1937;51.444;6.484;2024-03-25T12:22:43;8.00;;;4.30;;
3843;SDS011;1937;51.444;6.484;2024-03-25T12:25:10;8.10;;;4.00;;
3843;SDS011;1937;51.444;6.484;2024-03-25T12:27:37;6.73;;;3.13;;
3843;SDS011;1937;51.444;6.484;2024-03-25T12:30:04;9.97;;;4.23;;
3843;SDS011;1937;51.444;6.484;2024-03-25T12:32:35;8.47;;;3.90;;
3843;SDS011;1937;51.444;6.484;2024-03-25T12:35:01;10.20;;;4.20;;
3843;SDS011;1937;51.444;6.484;2024-03-25T12:37:27;7.43;;;3.13;;
3843;SDS011;1937;51.444;6.484;2024-03-25T12:39:53;6.40;;;3.10;;
3843;SDS011;1937;51.444;6.484;2024-03-25T12:42:20;8.10;;;3.37;;
3843;SDS011;1937;51.444;6.484;2024-03-25T12:44:46;10.67;;;3.93;;
3843;SDS011;1937;51.444;6.484;2024-03-25T12:47:12;8.40;;;3.70;;
3843;SDS011;1937;51.444;6.484;2024-03-25T12:49:37;6.97;;;4.40;;
3843;SDS011;1937;51.444;6.484;2024-03-25T12:52:04;7.80;;;4.27;;
3843;SDS011;1937;51.444;6.484;2024-03-25T12:54:31;7.70;;;4.20;;
3843;SDS011;1937;51.444;6.484;2024-03-25T12:56:57;7.63;;;4.23;;
3843;SDS011;1937;51.444;6.484;2024-03-25T12:59:24;5.50;;;2.87;;
3843;SDS011;1937;51.444;6.484;2024-03-25T13:01:50;5.70;;;2.70;;
3843;SDS011;1937;51.444;6.484;2024-03-25T13:04:16;6.77;;;3.30;;
3843;SDS011;1937;51.444;6.484;2024-03-25T13:06:42;6.07;;;3.97;;
3843;SDS011;1937;51.444;6.484;2024-03-25T13:09:07;6.43;;;3.30;;
3843;SDS011;1937;51.444;6.484;2024-03-25T13:11:33;8.90;;;4.23;;
3843;SDS011;1937;51.444;6.484;2024-03-25T13:13:59;9.03;;;4.03;;
3843;SDS011;1937;51.444;6.484;2024-03-25T13:16:26;7.57;;;3.93;;
3843;SDS011;1937;51.444;6.484;2024-03-25T13:18:52;6.60;;;4.40;;
3843;SDS011;1937;51.444;6.484;2024-03-25T13:21:17;13.00;;;4.10;;
3843;SDS011;1937;51.444;6.484;2024-03-25T13:23:43;9.97;;;4.00;;
3843;SDS011;1937;51.444;6.484;2024-03-25T13:26:09;8.87;;;3.73;;
3843;SDS011;1937;51.444;6.484;2024-03-25T13:28:34;6.50;;;3.30;;
3843;SDS011;1937;51.444;6.484;2024-03-25T13:31:00;7.10;;;4.07;;
3843;SDS011;1937;51.444;6.484;2024-03-25T13:33:27;10.73;;;4.70;;
3843;SDS011;1937;51.444;6.484;2024-03-25T13:35:53;8.40;;;4.70;;
3843;SDS011;1937;51.444;6.484;2024-03-25T13:38:18;8.30;;;4.43;;
3843;SDS011;1937;51.444;6.484;2024-03-25T13:40:44;10.80;;;5.23;;
3843;SDS011;1937;51.444;6.484;2024-03-25T13:43:10;7.80;;;4.17;;
3843;SDS011;1937;51.444;6.484;2024-03-25T13:45:35;10.03;;;4.47;;
3843;SDS011;1937;51.444;6.484;2024-03-25T13:48:01;6.07;;;3.77;;
3843;SDS011;1937;51.444;6.484;2024-03-25T13:50:28;4.80;;;3.40;;
3843;SDS011;1937;51.444;6.484;2024-03-25T13:52:54;9.27;;;3.90;;
3843;SDS011;1937;51.444;6.484;2024-03-25T13:55:19;9.13;;;4.70;;
3843;SDS011;1937;51.444;6.484;2024-03-25T13:57:45;9.23;;;4.00;;
3843;SDS011;1937;51.444;6.484;2024-03-25T14:00:11;6.20;;;3.83;;
3843;SDS011;1937;51.444;6.484;2024-03-25T14:02:38;4.73;;;4.10;;
3843;SDS011;1937;51.444;6.484;2024-03-25T14:05:04;9.03;;;4.67;;
3843;SDS011;1937;51.444;6.484;2024-03-25T14:07:31;5.50;;;3.50;;
3843;SDS011;1937;51.444;6.484;2024-03-25T14:09:57;7.20;;;3.20;;
3843;SDS011;1937;51.444;6.484;2024-03-25T14:12:25;8.17;;;3.70;;
3843;SDS011;1937;51.444;6.484;2024-03-25T14:14:51;4.43;;;2.93;;
3843;SDS011;1937;51.444;6.484;2024-03-25T14:17:16;7.27;;;3.20;;
3843;SDS011;1937;51.444;6.484;2024-03-25T14:19:42;5.13;;;2.83;;
3843;SDS011;1937;51.444;6.484;2024-03-25T14:22:08;3.50;;;2.43;;
3843;SDS011;1937;51.444;6.484;2024-03-25T14:24:35;11.20;;;3.13;;
3843;SDS011;1937;51.444;6.484;2024-03-25T14:27:00;4.20;;;3.20;;
3843;SDS011;1937;51.444;6.484;2024-03-25T14:29:26;6.30;;;3.37;;
3843;SDS011;1937;51.444;6.484;2024-03-25T14:31:51;5.60;;;3.17;;
3843;SDS011;1937;51.444;6.484;2024-03-25T14:34:17;6.47;;;3.10;;
3843;SDS011;1937;51.444;6.484;2024-03-25T14:36:43;8.17;;;4.13;;
3843;SDS011;1937;51.444;6.484;2024-03-25T14:39:08;12.77;;;3.87;;
3843;SDS011;1937;51.444;6.484;2024-03-25T14:41:39;7.20;;;4.00;;
3843;SDS011;1937;51.444;6.484;2024-03-25T14:44:05;7.33;;;4.50;;
3843;SDS011;1937;51.444;6.484;2024-03-25T14:46:31;7.20;;;3.73;;
3843;SDS011;1937;51.444;6.484;2024-03-25T14:48:57;6.83;;;3.73;;
3843;SDS011;1937;51.444;6.484;2024-03-25T14:51:23;7.20;;;3.67;;
3843;SDS011;1937;51.444;6.484;2024-03-25T14:53:49;7.47;;;4.00;;
3843;SDS011;1937;51.444;6.484;2024-03-25T14:56:14;4.83;;;3.10;;
3843;SDS011;1937;51.444;6.484;2024-03-25T14:58:41;8.13;;;3.93;;
3843;SDS011;1937;51.444;6.484;2024-03-25T15:01:07;3.43;;;2.70;;